sensor_id;sensor_type;location;lat;lon;timestamp;pressure;altitude;pressure_sealevel;temperature;humidity
23363;BME280;11853;48.080;11.960;2023-02-23T00:00:27;94422.94;;;10.59;72.55
23363;BME280;11853;48.080;11.960;2023-02-23T00:02:54;94425.28;;;10.63;72.86
23363;BME280;11853;48.080;11.960;2023-02-23T00:05:23;94428.94;;;10.62;72.14
23363;BME280;11853;48.080;11.960;2023-02-23T00:07:48;94426.56;;;10.58;72.10
23363;BME280;11853;48.080;11.960;2023-02-23T00:10:14;94426.59;;;10.50;72.93
23363;BME280;11853;48.080;11.960;2023-02-23T00:12:40;94432.84;;;10.49;72.62
23363;BME280;11853;48.080;11.960;2023-02-23T00:15:07;94440.66;;;10.43;72.58
23363;BME280;11853;48.080;11.960;2023-02-23T00:17:32;94431.53;;;10.45;72.05
23363;BME280;11853;48.080;11.960;2023-02-23T00:20:04;94422.22;;;10.41;72.95
23363;BME280;11853;48.080;11.960;2023-02-23T00:22:39;94428.53;;;10.40;72.73
23363;BME280;11853;48.080;11.960;2023-02-23T00:25:07;94427.72;;;10.40;73.31
23363;BME280;11853;48.080;11.960;2023-02-23T00:27:35;94426.38;;;10.44;73.49
23363;BME280;11853;48.080;11.960;2023-02-23T00:30:02;94423.72;;;10.44;73.44
23363;BME280;11853;48.080;11.960;2023-02-23T00:32:27;94425.22;;;10.46;73.70
23363;BME280;11853;48.080;11.960;2023-02-23T00:34:53;94422.06;;;10.34;74.30
23363;BME280;11853;48.080;11.960;2023-02-23T00:37:19;94428.69;;;10.38;74.78
23363;BME280;11853;48.080;11.960;2023-02-23T00:39:47;94431.19;;;10.40;75.02
23363;BME280;11853;48.080;11.960;2023-02-23T00:42:12;94429.34;;;10.41;75.03
23363;BME280;11853;48.080;11.960;2023-02-23T00:44:38;94430.38;;;10.40;75.39
23363;BME280;11853;48.080;11.960;2023-02-23T00:47:05;94425.56;;;10.43;75.48
23363;BME280;11853;48.080;11.960;2023-02-23T00:49:31;94433.00;;;10.40;75.93
23363;BME280;11853;48.080;11.960;2023-02-23T00:51:57;94426.22;;;10.37;75.84
23363;BME280;11853;48.080;11.960;2023-02-23T00:54:24;94425.53;;;10.35;76.08
23363;BME280;11853;48.080;11.960;2023-02-23T00:56:50;94428.19;;;10.35;75.80
23363;BME280;11853;48.080;11.960;2023-02-23T00:59:16;94420.72;;;10.30;76.91
23363;BME280;11853;48.080;11.960;2023-02-23T01:01:43;94430.66;;;10.28;77.00
23363;BME280;11853;48.080;11.960;2023-02-23T01:04:10;94420.72;;;10.30;76.96
23363;BME280;11853;48.080;11.960;2023-02-23T01:06:37;94422.84;;;10.27;77.85
23363;BME280;11853;48.080;11.960;2023-02-23T01:09:09;94421.72;;;10.29;77.56
23363;BME280;11853;48.080;11.960;2023-02-23T01:11:35;94430.16;;;10.33;77.10
23363;BME280;11853;48.080;11.960;2023-02-23T01:14:02;94425.84;;;10.32;77.52
23363;BME280;11853;48.080;11.960;2023-02-23T01:16:30;94427.19;;;10.28;77.22
23363;BME280;11853;48.080;11.960;2023-02-23T01:18:58;94421.31;;;10.24;77.63
23363;BME280;11853;48.080;11.960;2023-02-23T01:21:28;94421.66;;;10.21;78.11
23363;BME280;11853;48.080;11.960;2023-02-23T01:23:54;94423.16;;;10.24;77.78
23363;BME280;11853;48.080;11.960;2023-02-23T01:26:23;94422.66;;;10.20;78.14
23363;BME280;11853;48.080;11.960;2023-02-23T01:28:57;94425.44;;;10.10;78.80
23363;BME280;11853;48.080;11.960;2023-02-23T01:31:23;94420.47;;;10.15;79.11
23363;BME280;11853;48.080;11.960;2023-02-23T01:33:53;94425.44;;;10.10;79.51
23363;BME280;11853;48.080;11.960;2023-02-23T01:36:19;94420.47;;;10.07;79.61
23363;BME280;11853;48.080;11.960;2023-02-23T01:38:44;94426.28;;;10.11;79.87
23363;BME280;11853;48.080;11.960;2023-02-23T01:41:10;94429.75;;;10.11;80.13
23363;BME280;11853;48.080;11.960;2023-02-23T01:43:54;94424.41;;;10.03;80.65
23363;BME280;11853;48.080;11.960;2023-02-23T01:46:19;94417.47;;;10.02;80.27
23363;BME280;11853;48.080;11.960;2023-02-23T01:48:45;94417.28;;;10.04;80.71
23363;BME280;11853;48.080;11.960;2023-02-23T01:51:17;94412.50;;;10.07;80.63
23363;BME280;11853;48.080;11.960;2023-02-23T01:53:47;94419.59;;;10.07;80.35
23363;BME280;11853;48.080;11.960;2023-02-23T01:56:18;94415.16;;;10.07;80.22
23363;BME280;11853;48.080;11.960;2023-02-23T01:58:47;94420.47;;;10.07;80.05
23363;BME280;11853;48.080;11.960;2023-02-23T02:01:17;94418.44;;;10.01;80.57
23363;BME280;11853;48.080;11.960;2023-02-23T02:03:55;94413.63;;;9.97;81.37
23363;BME280;11853;48.080;11.960;2023-02-23T02:06:23;94412.94;;;9.95;81.51
23363;BME280;11853;48.080;11.960;2023-02-23T02:08:51;94412.94;;;9.95;81.56
23363;BME280;11853;48.080;11.960;2023-02-23T02:11:23;94408.13;;;9.90;82.14
23363;BME280;11853;48.080;11.960;2023-02-23T02:14:14;94410.31;;;9.95;81.98
23363;BME280;11853;48.080;11.960;2023-02-23T02:16:57;94411.66;;;9.99;81.83
23363;BME280;11853;48.080;11.960;2023-02-23T02:22:45;94407.81;;;9.93;82.81
23363;BME280;11853;48.080;11.960;2023-02-23T02:37:15;94400.16;;;9.82;83.27
23363;BME280;11853;48.080;11.960;2023-02-23T02:42:22;94402.94;;;9.80;83.74
23363;BME280;11853;48.080;11.960;2023-02-23T02:45:09;94400.47;;;9.79;84.25
23363;BME280;11853;48.080;11.960;2023-02-23T02:48:02;94385.56;;;9.78;83.50
23363;BME280;11853;48.080;11.960;2023-02-23T02:50:53;94393.19;;;9.81;83.12
23363;BME280;11853;48.080;11.960;2023-02-23T02:53:43;94396.50;;;9.83;82.88
23363;BME280;11853;48.080;11.960;2023-02-23T02:56:10;94400.16;;;9.82;82.92
23363;BME280;11853;48.080;11.960;2023-02-23T02:58:38;94404.78;;;9.80;83.59
23363;BME280;11853;48.080;11.960;2023-02-23T03:01:13;94409.03;;;9.73;83.51
23363;BME280;11853;48.080;11.960;2023-02-23T03:03:59;94402.78;;;9.74;83.33
23363;BME280;11853;48.080;11.960;2023-02-23T03:07:50;94411.69;;;9.73;83.82
23363;BME280;11853;48.080;11.960;2023-02-23T03:10:14;94411.19;;;9.69;84.65
23363;BME280;11853;48.080;11.960;2023-02-23T03:19:18;94418.34;;;9.77;85.00
23363;BME280;11853;48.080;11.960;2023-02-23T03:24:55;94411.91;;;9.79;85.54
23363;BME280;11853;48.080;11.960;2023-02-23T03:27:53;94415.69;;;9.77;85.96
23363;BME280;11853;48.080;11.960;2023-02-23T03:34:35;94417.72;;;9.83;86.32
23363;BME280;11853;48.080;11.960;2023-02-23T03:36:52;94416.56;;;9.85;85.62
23363;BME280;11853;48.080;11.960;2023-02-23T03:39:42;94408.09;;;9.82;86.25
23363;BME280;11853;48.080;11.960;2023-02-23T03:42:33;94410.94;;;9.88;85.55
23363;BME280;11853;48.080;11.960;2023-02-23T03:45:20;94418.06;;;9.88;85.51
23363;BME280;11853;48.080;11.960;2023-02-23T03:48:08;94413.13;;;9.93;85.19
23363;BME280;11853;48.080;11.960;2023-02-23T03:50:58;94418.44;;;9.93;85.27
23363;BME280;11853;48.080;11.960;2023-02-23T03:54:12;94415.44;;;9.96;85.50
23363;BME280;11853;48.080;11.960;2023-02-23T03:57:01;94424.69;;;9.92;84.91
23363;BME280;11853;48.080;11.960;2023-02-23T03:59:52;94424.00;;;9.90;84.86
23363;BME280;11853;48.080;11.960;2023-02-23T04:02:39;94415.56;;;9.86;85.53
23363;BME280;11853;48.080;11.960;2023-02-23T04:05:25;94423.81;;;9.83;85.31
23363;BME280;11853;48.080;11.960;2023-02-23T04:08:13;94422.38;;;9.89;84.99
23363;BME280;11853;48.080;11.960;2023-02-23T04:11:11;94423.41;;;9.96;84.69
23363;BME280;11853;48.080;11.960;2023-02-23T04:13:59;94419.06;;;9.95;84.49
23363;BME280;11853;48.080;11.960;2023-02-23T04:16:29;94431.34;;;9.96;84.73
23363;BME280;11853;48.080;11.960;2023-02-23T04:18:56;94432.31;;;9.95;84.68
23363;BME280;11853;48.080;11.960;2023-02-23T04:21:22;94431.34;;;9.96;84.78
23363;BME280;11853;48.080;11.960;2023-02-23T04:23:48;94423.50;;;9.86;86.24
23363;BME280;11853;48.080;11.960;2023-02-23T04:26:13;94432.66;;;9.92;84.82
23363;BME280;11853;48.080;11.960;2023-02-23T04:28:39;94438.59;;;9.86;86.12
23363;BME280;11853;48.080;11.960;2023-02-23T04:31:04;94427.84;;;9.87;85.45
23363;BME280;11853;48.080;11.960;2023-02-23T04:33:30;94434.28;;;9.85;86.20
23363;BME280;11853;48.080;11.960;2023-02-23T04:35:55;94435.25;;;9.84;86.33
23363;BME280;11853;48.080;11.960;2023-02-23T04:38:21;94435.56;;;9.81;86.23
23363;BME280;11853;48.080;11.960;2023-02-23T04:40:47;94433.72;;;9.73;87.00
23363;BME280;11853;48.080;11.960;2023-02-23T04:43:13;94438.16;;;9.73;86.63
23363;BME280;11853;48.080;11.960;2023-02-23T04:45:39;94436.53;;;9.72;87.04
23363;BME280;11853;48.080;11.960;2023-02-23T04:48:05;94437.34;;;9.72;87.37
23363;BME280;11853;48.080;11.960;2023-02-23T04:50:31;94435.53;;;9.73;87.48
23363;BME280;11853;48.080;11.960;2023-02-23T04:52:56;94434.69;;;9.72;86.42
23363;BME280;11853;48.080;11.960;2023-02-23T04:55:23;94437.53;;;9.70;87.22
23363;BME280;11853;48.080;11.960;2023-02-23T04:57:50;94438.16;;;9.73;86.88
23363;BME280;11853;48.080;11.960;2023-02-23T05:00:17;94441.00;;;9.71;86.54
23363;BME280;11853;48.080;11.960;2023-02-23T05:02:43;94444.84;;;9.77;86.10
23363;BME280;11853;48.080;11.960;2023-02-23T05:05:10;94447.84;;;9.82;85.85
23363;BME280;11853;48.080;11.960;2023-02-23T05:07:36;94448.16;;;9.79;85.84
23363;BME280;11853;48.080;11.960;2023-02-23T05:10:04;94444.88;;;9.85;85.49
23363;BME280;11853;48.080;11.960;2023-02-23T05:12:31;94441.09;;;9.87;86.03
23363;BME280;11853;48.080;11.960;2023-02-23T05:14:56;94436.94;;;9.85;86.20
23363;BME280;11853;48.080;11.960;2023-02-23T05:17:22;94436.94;;;9.85;85.81
23363;BME280;11853;48.080;11.960;2023-02-23T05:19:48;94442.22;;;9.85;85.40
23363;BME280;11853;48.080;11.960;2023-02-23T05:22:14;94433.09;;;9.79;86.32
23363;BME280;11853;48.080;11.960;2023-02-23T05:24:40;94447.47;;;9.77;86.49
23363;BME280;11853;48.080;11.960;2023-02-23T05:27:09;94442.88;;;9.79;86.23
23363;BME280;11853;48.080;11.960;2023-02-23T05:29:35;94445.47;;;9.70;86.53
23363;BME280;11853;48.080;11.960;2023-02-23T05:32:01;94443.97;;;9.68;86.73
23363;BME280;11853;48.080;11.960;2023-02-23T05:34:27;94441.63;;;9.65;87.51
23363;BME280;11853;48.080;11.960;2023-02-23T05:36:53;94447.44;;;9.68;87.96
23363;BME280;11853;48.080;11.960;2023-02-23T05:39:19;94442.97;;;9.69;87.52
23363;BME280;11853;48.080;11.960;2023-02-23T05:41:45;94447.13;;;9.72;87.42
23363;BME280;11853;48.080;11.960;2023-02-23T05:44:11;94443.84;;;9.78;86.29
23363;BME280;11853;48.080;11.960;2023-02-23T05:46:36;94442.88;;;9.79;86.18
23363;BME280;11853;48.080;11.960;2023-02-23T05:49:02;94441.03;;;9.79;85.96
23363;BME280;11853;48.080;11.960;2023-02-23T05:51:32;94437.56;;;9.79;86.52
23363;BME280;11853;48.080;11.960;2023-02-23T05:53:58;94435.56;;;9.81;86.09
23363;BME280;11853;48.080;11.960;2023-02-23T05:56:24;94429.75;;;9.77;86.41
23363;BME280;11853;48.080;11.960;2023-02-23T05:58:53;94448.44;;;9.76;86.17
23363;BME280;11853;48.080;11.960;2023-02-23T06:01:20;94448.44;;;9.76;86.31
23363;BME280;11853;48.080;11.960;2023-02-23T06:03:47;94445.81;;;9.76;86.56
23363;BME280;11853;48.080;11.960;2023-02-23T06:06:14;94450.59;;;9.72;86.38
23363;BME280;11853;48.080;11.960;2023-02-23T06:08:40;94451.28;;;9.74;87.26
23363;BME280;11853;48.080;11.960;2023-02-23T06:11:06;94445.97;;;9.74;86.68
23363;BME280;11853;48.080;11.960;2023-02-23T06:13:32;94450.22;;;9.67;88.09
23363;BME280;11853;48.080;11.960;2023-02-23T06:15:58;94461.03;;;9.74;87.10
23363;BME280;11853;48.080;11.960;2023-02-23T06:18:25;94458.41;;;9.74;87.19
23363;BME280;11853;48.080;11.960;2023-02-23T06:20:50;94463.53;;;9.75;86.71
23363;BME280;11853;48.080;11.960;2023-02-23T06:23:16;94463.06;;;9.80;86.94
23363;BME280;11853;48.080;11.960;2023-02-23T06:25:43;94466.53;;;9.80;87.20
23363;BME280;11853;48.080;11.960;2023-02-23T06:28:09;94467.03;;;9.84;88.11
23363;BME280;11853;48.080;11.960;2023-02-23T06:30:36;94469.38;;;9.87;88.67
23363;BME280;11853;48.080;11.960;2023-02-23T06:33:02;94468.09;;;9.91;88.67
23363;BME280;11853;48.080;11.960;2023-02-23T06:35:27;94480.00;;;9.95;89.12
23363;BME280;11853;48.080;11.960;2023-02-23T06:37:53;94473.06;;;9.94;89.07
23363;BME280;11853;48.080;11.960;2023-02-23T06:40:19;94470.09;;;9.97;88.97
23363;BME280;11853;48.080;11.960;2023-02-23T06:42:45;94477.91;;;9.99;88.51
23363;BME280;11853;48.080;11.960;2023-02-23T06:45:11;94481.22;;;10.01;88.31
23363;BME280;11853;48.080;11.960;2023-02-23T06:47:38;94485.69;;;10.00;88.22
23363;BME280;11853;48.080;11.960;2023-02-23T06:50:06;94476.59;;;10.03;87.88
23363;BME280;11853;48.080;11.960;2023-02-23T06:52:31;94482.03;;;10.01;87.57
23363;BME280;11853;48.080;11.960;2023-02-23T06:54:58;94486.69;;;9.99;87.64
23363;BME280;11853;48.080;11.960;2023-02-23T06:57:23;94491.16;;;9.99;88.13
23363;BME280;11853;48.080;11.960;2023-02-23T06:59:49;94492.81;;;10.00;88.51
23363;BME280;11853;48.080;11.960;2023-02-23T07:02:15;94491.66;;;10.02;88.47
23363;BME280;11853;48.080;11.960;2023-02-23T07:04:41;94494.81;;;10.06;87.65
23363;BME280;11853;48.080;11.960;2023-02-23T07:07:07;94491.34;;;10.05;88.84
23363;BME280;11853;48.080;11.960;2023-02-23T07:09:36;94501.78;;;10.07;88.33
23363;BME280;11853;48.080;11.960;2023-02-23T07:12:03;94494.31;;;10.02;89.02
23363;BME280;11853;48.080;11.960;2023-02-23T07:14:29;94501.25;;;10.03;89.42
23363;BME280;11853;48.080;11.960;2023-02-23T07:16:55;94491.16;;;10.07;89.62
23363;BME280;11853;48.080;11.960;2023-02-23T07:19:21;94496.50;;;10.15;88.28
23363;BME280;11853;48.080;11.960;2023-02-23T07:21:47;94499.84;;;10.17;88.81
23363;BME280;11853;48.080;11.960;2023-02-23T07:24:13;94494.13;;;10.30;88.15
23363;BME280;11853;48.080;11.960;2023-02-23T07:26:38;94489.50;;;10.32;87.76
23363;BME280;11853;48.080;11.960;2023-02-23T07:29:10;94497.13;;;10.35;88.38
23363;BME280;11853;48.080;11.960;2023-02-23T07:31:39;94496.66;;;10.40;89.92
23363;BME280;11853;48.080;11.960;2023-02-23T07:34:11;94497.88;;;10.53;88.66
23363;BME280;11853;48.080;11.960;2023-02-23T07:36:40;94496.19;;;10.52;88.15
23363;BME280;11853;48.080;11.960;2023-02-23T07:39:06;94493.22;;;10.55;87.09
23363;BME280;11853;48.080;11.960;2023-02-23T07:41:33;94491.88;;;10.51;87.48
23363;BME280;11853;48.080;11.960;2023-02-23T07:43:58;94495.72;;;10.57;87.37
23363;BME280;11853;48.080;11.960;2023-02-23T07:46:28;94497.91;;;10.62;86.75
23363;BME280;11853;48.080;11.960;2023-02-23T07:48:54;94492.88;;;10.58;86.79
23363;BME280;11853;48.080;11.960;2023-02-23T07:51:21;94501.84;;;10.57;87.22
23363;BME280;11853;48.080;11.960;2023-02-23T07:53:46;94503.66;;;10.57;87.12
23363;BME280;11853;48.080;11.960;2023-02-23T07:56:13;94499.88;;;10.59;87.56
23363;BME280;11853;48.080;11.960;2023-02-23T07:58:40;94497.91;;;10.62;87.42
23363;BME280;11853;48.080;11.960;2023-02-23T08:01:07;94505.84;;;10.62;87.51
23363;BME280;11853;48.080;11.960;2023-02-23T08:03:33;94505.84;;;10.62;87.97
23363;BME280;11853;48.080;11.960;2023-02-23T08:05:58;94509.34;;;10.62;88.22
23363;BME280;11853;48.080;11.960;2023-02-23T08:08:26;94504.66;;;10.64;88.44
23363;BME280;11853;48.080;11.960;2023-02-23T08:11:04;94509.84;;;10.66;88.89
23363;BME280;11853;48.080;11.960;2023-02-23T08:13:30;94508.69;;;10.68;88.80
23363;BME280;11853;48.080;11.960;2023-02-23T08:15:58;94512.50;;;10.74;89.20
23363;BME280;11853;48.080;11.960;2023-02-23T08:18:24;94517.00;;;10.73;89.14
23363;BME280;11853;48.080;11.960;2023-02-23T08:20:57;94510.19;;;10.71;90.44
23363;BME280;11853;48.080;11.960;2023-02-23T08:23:22;94514.84;;;10.77;90.16
23363;BME280;11853;48.080;11.960;2023-02-23T08:25:49;94516.47;;;10.78;90.29
23363;BME280;11853;48.080;11.960;2023-02-23T08:28:14;94512.69;;;10.80;90.87
23363;BME280;11853;48.080;11.960;2023-02-23T08:30:40;94514.19;;;10.83;91.53
23363;BME280;11853;48.080;11.960;2023-02-23T08:33:06;94516.50;;;10.86;91.91
23363;BME280;11853;48.080;11.960;2023-02-23T08:35:32;94529.31;;;10.91;91.28
23363;BME280;11853;48.080;11.960;2023-02-23T08:37:58;94518.84;;;10.89;91.89
23363;BME280;11853;48.080;11.960;2023-02-23T08:40:23;94520.66;;;10.89;92.88
23363;BME280;11853;48.080;11.960;2023-02-23T08:42:49;94519.19;;;10.94;92.68
23363;BME280;11853;48.080;11.960;2023-02-23T08:45:18;94521.50;;;10.97;92.94
23363;BME280;11853;48.080;11.960;2023-02-23T08:47:45;94517.38;;;11.03;92.88
23363;BME280;11853;48.080;11.960;2023-02-23T08:50:11;94517.69;;;11.00;92.82
23363;BME280;11853;48.080;11.960;2023-02-23T08:52:38;94517.88;;;11.07;92.85
23363;BME280;11853;48.080;11.960;2023-02-23T08:55:04;94513.91;;;11.11;93.11
23363;BME280;11853;48.080;11.960;2023-02-23T08:57:34;94514.72;;;11.11;92.87
23363;BME280;11853;48.080;11.960;2023-02-23T09:00:02;94520.72;;;11.13;92.80
23363;BME280;11853;48.080;11.960;2023-02-23T09:02:42;94517.88;;;11.15;92.91
23363;BME280;11853;48.080;11.960;2023-02-23T09:05:11;94513.25;;;11.17;93.26
23363;BME280;11853;48.080;11.960;2023-02-23T09:07:38;94510.06;;;11.21;92.69
23363;BME280;11853;48.080;11.960;2023-02-23T09:10:05;94516.25;;;11.22;92.75
23363;BME280;11853;48.080;11.960;2023-02-23T09:12:31;94521.72;;;11.28;92.36
23363;BME280;11853;48.080;11.960;2023-02-23T09:14:56;94513.25;;;11.33;92.13
23363;BME280;11853;48.080;11.960;2023-02-23T09:17:22;94518.25;;;11.36;91.86
23363;BME280;11853;48.080;11.960;2023-02-23T09:19:49;94518.25;;;11.36;91.90
23363;BME280;11853;48.080;11.960;2023-02-23T09:22:14;94512.59;;;11.39;91.86
23363;BME280;11853;48.080;11.960;2023-02-23T09:24:43;94514.25;;;11.40;92.38
23363;BME280;11853;48.080;11.960;2023-02-23T09:27:08;94524.03;;;11.48;91.74
23363;BME280;11853;48.080;11.960;2023-02-23T09:29:37;94520.06;;;11.52;91.28
23363;BME280;11853;48.080;11.960;2023-02-23T09:32:06;94513.25;;;11.49;92.15
23363;BME280;11853;48.080;11.960;2023-02-23T09:34:33;94521.53;;;11.55;92.07
23363;BME280;11853;48.080;11.960;2023-02-23T09:37:01;94522.84;;;11.59;92.37
23363;BME280;11853;48.080;11.960;2023-02-23T09:39:27;94517.25;;;11.62;91.66
23363;BME280;11853;48.080;11.960;2023-02-23T09:47:47;94529.00;;;11.67;91.73
23363;BME280;11853;48.080;11.960;2023-02-23T09:50:24;94526.03;;;11.70;91.00
23363;BME280;11853;48.080;11.960;2023-02-23T09:53:00;94520.53;;;11.80;90.95
23363;BME280;11853;48.080;11.960;2023-02-23T09:55:28;94529.69;;;11.86;90.88
23363;BME280;11853;48.080;11.960;2023-02-23T09:57:57;94532.16;;;11.87;91.33
23363;BME280;11853;48.080;11.960;2023-02-23T10:00:26;94531.66;;;11.92;90.90
23363;BME280;11853;48.080;11.960;2023-02-23T10:05:44;94538.47;;;12.11;90.64
23363;BME280;11853;48.080;11.960;2023-02-23T10:10:48;94529.25;;;12.22;89.21
23363;BME280;11853;48.080;11.960;2023-02-23T10:13:23;94530.59;;;12.26;88.56
23363;BME280;11853;48.080;11.960;2023-02-23T10:16:15;94529.78;;;12.25;88.36
23363;BME280;11853;48.080;11.960;2023-02-23T10:19:09;94535.44;;;12.22;88.30
23363;BME280;11853;48.080;11.960;2023-02-23T10:21:39;94531.94;;;12.22;87.97
23363;BME280;11853;48.080;11.960;2023-02-23T10:24:32;94537.44;;;12.20;87.99
23363;BME280;11853;48.080;11.960;2023-02-23T10:27:16;94531.44;;;12.18;87.99
23363;BME280;11853;48.080;11.960;2023-02-23T10:29:52;94535.13;;;12.17;87.99
23363;BME280;11853;48.080;11.960;2023-02-23T10:34:48;94528.78;;;12.18;87.51
23363;BME280;11853;48.080;11.960;2023-02-23T10:37:18;94527.13;;;12.17;87.43
23363;BME280;11853;48.080;11.960;2023-02-23T10:39:44;94523.81;;;12.15;87.70
23363;BME280;11853;48.080;11.960;2023-02-23T10:42:22;94522.97;;;12.14;87.82
23363;BME280;11853;48.080;11.960;2023-02-23T10:44:48;94519.50;;;12.14;87.63
23363;BME280;11853;48.080;11.960;2023-02-23T10:47:18;94528.13;;;12.16;87.70
23363;BME280;11853;48.080;11.960;2023-02-23T10:49:49;94514.81;;;12.16;88.13
23363;BME280;11853;48.080;11.960;2023-02-23T10:52:45;94524.13;;;12.20;87.29
23363;BME280;11853;48.080;11.960;2023-02-23T10:55:27;94522.78;;;12.24;87.06
23363;BME280;11853;48.080;11.960;2023-02-23T10:58:14;94513.63;;;12.27;87.56
23363;BME280;11853;48.080;11.960;2023-02-23T11:01:01;94515.44;;;12.34;86.84
23363;BME280;11853;48.080;11.960;2023-02-23T11:03:53;94517.06;;;12.44;86.82
23363;BME280;11853;48.080;11.960;2023-02-23T11:06:31;94500.41;;;12.50;86.96
23363;BME280;11853;48.080;11.960;2023-02-23T11:09:22;94500.56;;;12.56;86.09
23363;BME280;11853;48.080;11.960;2023-02-23T11:12:00;94503.34;;;12.63;85.11
23363;BME280;11853;48.080;11.960;2023-02-23T11:14:29;94493.00;;;12.68;85.36
23363;BME280;11853;48.080;11.960;2023-02-23T11:16:56;94491.13;;;12.77;85.34
23363;BME280;11853;48.080;11.960;2023-02-23T11:19:40;94497.59;;;12.82;84.17
23363;BME280;11853;48.080;11.960;2023-02-23T11:22:06;94495.44;;;12.78;83.51
23363;BME280;11853;48.080;11.960;2023-02-23T11:24:39;94491.09;;;12.85;81.82
23363;BME280;11853;48.080;11.960;2023-02-23T11:27:15;94486.94;;;12.82;82.75
23363;BME280;11853;48.080;11.960;2023-02-23T11:29:44;94491.25;;;12.83;83.61
23363;BME280;11853;48.080;11.960;2023-02-23T11:32:12;94489.59;;;12.82;83.44
23363;BME280;11853;48.080;11.960;2023-02-23T11:34:40;94483.78;;;12.79;83.14
23363;BME280;11853;48.080;11.960;2023-02-23T11:37:19;94489.09;;;12.79;83.15
23363;BME280;11853;48.080;11.960;2023-02-23T11:39:53;94475.16;;;12.77;83.02
23363;BME280;11853;48.080;11.960;2023-02-23T11:42:21;94480.97;;;12.80;82.64
23363;BME280;11853;48.080;11.960;2023-02-23T11:45:00;94475.94;;;12.85;82.56
23363;BME280;11853;48.080;11.960;2023-02-23T11:47:28;94480.59;;;12.83;81.95
23363;BME280;11853;48.080;11.960;2023-02-23T11:49:56;94467.00;;;12.78;81.79
23363;BME280;11853;48.080;11.960;2023-02-23T11:52:23;94470.31;;;12.80;82.01
23363;BME280;11853;48.080;11.960;2023-02-23T11:54:54;94461.16;;;12.83;81.73
23363;BME280;11853;48.080;11.960;2023-02-23T11:57:29;94469.25;;;12.90;81.40
23363;BME280;11853;48.080;11.960;2023-02-23T11:59:58;94466.91;;;12.95;81.49
23363;BME280;11853;48.080;11.960;2023-02-23T12:02:29;94461.69;;;13.01;80.81
23363;BME280;11853;48.080;11.960;2023-02-23T12:05:06;94455.53;;;13.01;80.72
23363;BME280;11853;48.080;11.960;2023-02-23T12:07:38;94454.00;;;13.06;80.48
23363;BME280;11853;48.080;11.960;2023-02-23T12:10:26;94455.84;;;13.06;80.42
23363;BME280;11853;48.080;11.960;2023-02-23T12:16:00;94444.00;;;13.08;80.56
23363;BME280;11853;48.080;11.960;2023-02-23T12:21:08;94441.75;;;13.20;79.59
23363;BME280;11853;48.080;11.960;2023-02-23T12:23:35;94446.88;;;13.22;79.32
23363;BME280;11853;48.080;11.960;2023-02-23T12:26:11;94444.03;;;13.23;79.79
23363;BME280;11853;48.080;11.960;2023-02-23T12:28:53;94433.66;;;13.37;79.69
23363;BME280;11853;48.080;11.960;2023-02-23T12:34:00;94436.06;;;13.61;78.50
23363;BME280;11853;48.080;11.960;2023-02-23T12:36:44;94434.28;;;13.77;78.41
23363;BME280;11853;48.080;11.960;2023-02-23T12:39:30;94437.19;;;13.82;77.46
23363;BME280;11853;48.080;11.960;2023-02-23T12:42:09;94434.44;;;13.90;77.27
23363;BME280;11853;48.080;11.960;2023-02-23T12:47:30;94429.47;;;13.87;77.16
23363;BME280;11853;48.080;11.960;2023-02-23T12:50:29;94438.22;;;13.81;76.35
23363;BME280;11853;48.080;11.960;2023-02-23T13:01:32;94429.47;;;13.57;75.95
23363;BME280;11853;48.080;11.960;2023-02-23T13:21:04;94416.78;;;13.59;76.51
23363;BME280;11853;48.080;11.960;2023-02-23T13:23:38;94414.47;;;13.56;76.23
23363;BME280;11853;48.080;11.960;2023-02-23T13:31:29;94421.66;;;13.70;75.78
23363;BME280;11853;48.080;11.960;2023-02-23T13:33:57;94420.44;;;13.73;75.22
23363;BME280;11853;48.080;11.960;2023-02-23T13:36:25;94416.97;;;13.72;74.94
23363;BME280;11853;48.080;11.960;2023-02-23T13:42:10;94416.50;;;13.69;76.17
23363;BME280;11853;48.080;11.960;2023-02-23T13:49:54;94402.16;;;13.70;76.56
23363;BME280;11853;48.080;11.960;2023-02-23T13:52:37;94397.03;;;13.68;75.95
23363;BME280;11853;48.080;11.960;2023-02-23T13:57:55;94414.56;;;13.63;74.48
23363;BME280;11853;48.080;11.960;2023-02-23T14:00:27;94408.50;;;13.54;74.83
23363;BME280;11853;48.080;11.960;2023-02-23T14:02:53;94403.78;;;13.56;74.24
23363;BME280;11853;48.080;11.960;2023-02-23T14:05:24;94407.91;;;13.44;74.67
23363;BME280;11853;48.080;11.960;2023-02-23T14:07:56;94403.69;;;13.35;75.75
23363;BME280;11853;48.080;11.960;2023-02-23T14:10:23;94402.41;;;13.31;76.14
23363;BME280;11853;48.080;11.960;2023-02-23T14:13:24;94392.59;;;13.23;77.99
23363;BME280;11853;48.080;11.960;2023-02-23T14:16:14;94403.78;;;13.18;79.25
23363;BME280;11853;48.080;11.960;2023-02-23T14:19:10;94394.69;;;13.13;78.99
23363;BME280;11853;48.080;11.960;2023-02-23T14:24:18;94398.88;;;13.07;79.80
23363;BME280;11853;48.080;11.960;2023-02-23T14:29:39;94401.63;;;12.99;80.45
23363;BME280;11853;48.080;11.960;2023-02-23T14:37:29;94405.00;;;12.93;81.10
23363;BME280;11853;48.080;11.960;2023-02-23T14:40:01;94409.97;;;12.96;80.25
23363;BME280;11853;48.080;11.960;2023-02-23T14:42:28;94399.03;;;12.91;80.47
23363;BME280;11853;48.080;11.960;2023-02-23T14:44:55;94399.56;;;12.86;80.15
23363;BME280;11853;48.080;11.960;2023-02-23T14:47:25;94400.69;;;12.92;79.63
23363;BME280;11853;48.080;11.960;2023-02-23T14:49:57;94399.09;;;12.82;81.71
23363;BME280;11853;48.080;11.960;2023-02-23T14:57:35;94403.53;;;12.36;86.65
23363;BME280;11853;48.080;11.960;2023-02-23T15:00:10;94394.75;;;12.27;86.87
23363;BME280;11853;48.080;11.960;2023-02-23T15:02:37;94398.84;;;12.07;87.51
23363;BME280;11853;48.080;11.960;2023-02-23T15:05:16;94404.88;;;12.01;87.82
23363;BME280;11853;48.080;11.960;2023-02-23T15:07:42;94412.56;;;11.79;90.06